Pagrindinis puslapis
METAR-TAF:

METAR-TAF

Oro uostai :

Karačis, Pakistanas

platuma: 24-54N, ilguma: 067-08E, Aukštis: 21 m

Dabartinis oras

Ataskaita buvo paskelbta 37 minutes, ne 04:25 UTC
Vėjas 10 kt iš Vakarų/Šiaurės Vakarų
Temperatūra 28°C
Drėgmė 62%
Slėgis 1011 hPa
Matomumas: 6000 m

METAR: OPKC 070425Z 29010KT 6000 NSC 28/20 Q1011 NOSIG

Laikas: 10:02 (05:02 UTC)

Prognozė

Ataskaita buvo paskelbta 4 valandos ir 32 minutes, ne 00:30 UTC
Prognozė galioja nuo 07 metu 03 UTC su 07 metu 12 UTC
Vėjas 7 kt iš Vakarų/Pietvakarių su gūsio iki 17 kt
Matomumas: 6000 m

TAF: OPKC 070030Z 0703/0712 25007G17KT 6000 NSC

Orai ataskaitas ir orų prognozės (METAR, TAF).

turimą stotys yra geltonos ir raudonos taškus žemėlapyje.

Perkelti pele per norėdami pamatyti stoties vardą.

Tada spustelėkite, norėdami matyti oro stebėjimo ir prognozės.

Norėdami pakeisti žemėlapį: spustelėkite ant žalios mygtukų su juodo kryžiaus žemyn,; žalią mygtuką su brūkšneliu, jei norite nutolinti; arba žalių rodyklių gretimoms žemėlapius.


METAR-TAF: